METAR Data
IDs: Format: Raw Decoded Include TAF

Data at: 0306 UTC 20 Jan 2022

SAME 200300Z 20003KT 9999 FEW045 19/11 Q1017